createdAt,value
2019-02-25T00:02:25.118Z,5.43
2019-02-25T00:04:53.656Z,5.46
2019-02-25T00:07:21.949Z,5.57
2019-02-25T00:09:50.223Z,5.68
2019-02-25T00:12:18.525Z,5.71
2019-02-25T00:14:46.817Z,5.67
2019-02-25T00:17:15.084Z,5.71
2019-02-25T00:19:43.412Z,5.72
2019-02-25T00:22:11.683Z,5.60
2019-02-25T00:24:39.946Z,5.59
2019-02-25T00:27:08.246Z,5.54
2019-02-25T00:29:36.513Z,5.53
2019-02-25T00:32:04.792Z,5.50
2019-02-25T00:34:33.057Z,5.44
2019-02-25T00:37:01.365Z,5.47
2019-02-25T00:39:29.636Z,5.44
2019-02-25T00:41:57.932Z,5.38
2019-02-25T00:44:26.231Z,5.55
2019-02-25T00:46:54.496Z,5.50
2019-02-25T00:49:22.775Z,5.37
2019-02-25T00:51:51.100Z,5.38
2019-02-25T00:54:19.373Z,5.35
2019-02-25T00:56:47.645Z,4.73
2019-02-25T00:59:15.980Z,4.98
2019-02-25T01:01:44.246Z,4.96
2019-02-25T01:04:12.513Z,4.72
2019-02-25T01:06:40.814Z,4.80
2019-02-25T01:09:09.092Z,4.84
2019-02-25T01:11:37.395Z,4.67
2019-02-25T01:14:05.695Z,4.56
2019-02-25T01:16:33.966Z,4.48
2019-02-25T01:19:02.261Z,4.53
2019-02-25T01:21:30.528Z,4.49
2019-02-25T01:23:58.825Z,4.48
2019-02-25T01:26:27.089Z,4.31
2019-02-25T01:28:55.388Z,4.15
2019-02-25T01:31:23.663Z,4.03
2019-02-25T01:33:51.971Z,3.65
2019-02-25T01:36:20.267Z,3.41
2019-02-25T01:38:48.570Z,3.48
2019-02-25T01:41:16.872Z,3.68
2019-02-25T01:43:45.136Z,3.73
2019-02-25T01:46:13.433Z,3.58
2019-02-25T01:48:41.726Z,3.31
2019-02-25T01:51:10.018Z,3.15
2019-02-25T01:53:38.282Z,2.94
2019-02-25T01:56:06.547Z,3.06
2019-02-25T01:58:34.844Z,2.86
2019-02-25T02:01:03.178Z,2.78
2019-02-25T02:03:31.443Z,3.07
2019-02-25T02:05:59.707Z,3.19
2019-02-25T02:08:28.001Z,3.18
2019-02-25T02:10:56.272Z,3.05
2019-02-25T02:13:24.554Z,2.64
2019-02-25T02:15:52.815Z,2.89
2019-02-25T02:18:21.106Z,2.85
2019-02-25T02:20:49.368Z,2.83
2019-02-25T02:23:17.664Z,2.98
2019-02-25T02:25:45.957Z,3.07
2019-02-25T02:28:14.218Z,3.03
2019-02-25T02:30:42.490Z,2.95
2019-02-25T02:33:10.791Z,3.02
2019-02-25T02:35:39.065Z,3.09
2019-02-25T02:38:07.347Z,3.12
2019-02-25T02:40:37.242Z,2.99
2019-02-25T02:43:05.519Z,2.98
2019-02-25T02:45:46.042Z,2.95
2019-02-25T02:48:38.792Z,2.68
2019-02-25T02:51:07.060Z,2.77
2019-02-25T02:53:35.346Z,2.84
2019-02-25T02:56:03.609Z,2.93
2019-02-25T02:58:31.887Z,3.10
2019-02-25T03:01:00.167Z,3.19
2019-02-25T03:03:28.491Z,3.26
2019-02-25T03:05:56.758Z,3.38
2019-02-25T03:08:25.018Z,3.45
2019-02-25T03:10:53.311Z,3.59
2019-02-25T03:13:21.580Z,3.62
2019-02-25T03:15:49.848Z,3.76
2019-02-25T03:18:18.134Z,3.81
2019-02-25T03:20:46.400Z,3.80
2019-02-25T03:23:14.672Z,3.91
2019-02-25T03:25:42.936Z,3.95
2019-02-25T03:28:11.205Z,3.96
2019-02-25T03:30:39.471Z,4.04
2019-02-25T03:33:07.756Z,4.24
2019-02-25T03:35:36.020Z,4.24
2019-02-25T03:38:04.312Z,4.18
2019-02-25T03:40:32.577Z,4.17
2019-02-25T03:43:00.937Z,4.30
2019-02-25T03:45:29.199Z,4.38
2019-02-25T03:47:57.500Z,4.38
2019-02-25T03:50:25.765Z,4.45
2019-02-25T03:52:54.073Z,4.43
2019-02-25T03:55:22.456Z,4.45
2019-02-25T03:57:50.786Z,4.48
2019-02-25T04:00:21.647Z,4.52
2019-02-25T04:02:49.914Z,4.58
2019-02-25T04:05:18.189Z,4.51
2019-02-25T04:07:46.465Z,4.44
2019-02-25T04:10:15.274Z,4.33
2019-02-25T04:12:43.590Z,4.57
2019-02-25T04:15:14.361Z,4.56
2019-02-25T04:17:42.625Z,4.42
2019-02-25T04:20:13.168Z,4.55
2019-02-25T04:22:41.469Z,4.56
2019-02-25T04:25:09.773Z,4.57
2019-02-25T04:27:38.053Z,4.59
2019-02-25T04:30:12.108Z,4.55
2019-02-25T04:32:40.390Z,4.48
2019-02-25T04:35:09.994Z,4.42
2019-02-25T04:37:38.275Z,4.35
2019-02-25T04:40:14.192Z,4.16
2019-02-25T04:42:42.527Z,4.00
2019-02-25T04:45:13.460Z,3.98
2019-02-25T04:47:41.720Z,4.09
2019-02-25T04:50:11.356Z,3.99
2019-02-25T04:52:39.651Z,4.16
2019-02-25T04:55:09.750Z,4.25
2019-02-25T04:57:38.104Z,4.21
2019-02-25T05:00:09.624Z,3.65
2019-02-25T05:02:37.926Z,3.73
2019-02-25T05:05:06.633Z,3.74
2019-02-25T05:07:34.925Z,3.84
2019-02-25T05:10:03.736Z,3.67
2019-02-25T05:12:32.006Z,3.58
2019-02-25T05:15:00.269Z,3.68
2019-02-25T05:17:28.562Z,3.75
2019-02-25T05:19:56.862Z,3.80
2019-02-25T05:22:26.307Z,3.97
2019-02-25T05:24:54.632Z,4.03
2019-02-25T05:27:22.912Z,4.01
2019-02-25T05:29:51.206Z,4.03
2019-02-25T05:32:19.482Z,3.93
2019-02-25T05:34:49.120Z,3.60
2019-02-25T05:37:17.398Z,3.74
2019-02-25T05:46:13.734Z,1.99
2019-02-25T05:48:42.010Z,2.02
2019-02-25T05:51:10.277Z,1.89
2019-02-25T05:53:38.572Z,2.31
2019-02-25T05:56:06.842Z,2.50
2019-02-25T05:58:35.135Z,2.72
2019-02-25T06:01:03.401Z,2.68
2019-02-25T06:03:31.718Z,2.87
2019-02-25T06:05:59.987Z,3.18
2019-02-25T06:08:28.263Z,3.38
2019-02-25T06:10:56.562Z,3.53
2019-02-25T06:13:24.844Z,3.63
2019-02-25T06:15:53.143Z,3.59
2019-02-25T06:18:21.445Z,3.57
2019-02-25T06:20:49.689Z,3.62
2019-02-25T06:23:17.988Z,3.22
2019-02-25T06:25:46.254Z,3.08
2019-02-25T06:28:14.553Z,2.90
2019-02-25T06:30:42.818Z,3.51
2019-02-25T06:33:11.098Z,3.64
2019-02-25T06:35:39.368Z,3.63
2019-02-25T06:38:07.672Z,3.87
2019-02-25T06:40:35.970Z,4.01
2019-02-25T06:43:04.234Z,4.17
2019-02-25T06:45:37.171Z,4.24
2019-02-25T06:48:05.434Z,4.38
2019-02-25T06:50:33.736Z,4.47
2019-02-25T06:53:02.009Z,4.58
2019-02-25T06:55:30.275Z,4.74
2019-02-25T06:57:58.585Z,4.91
2019-02-25T07:00:26.853Z,5.06
2019-02-25T07:02:55.137Z,5.29
2019-02-25T07:05:25.073Z,5.42
2019-02-25T07:07:54.993Z,5.69
2019-02-25T07:10:41.064Z,5.75
2019-02-25T07:13:10.985Z,6.16
2019-02-25T07:15:43.943Z,6.12
2019-02-25T07:18:19.566Z,6.35
2019-02-25T07:20:51.947Z,6.33
2019-02-25T07:23:21.862Z,6.46
2019-02-25T07:25:54.699Z,6.66
2019-02-25T07:28:27.543Z,6.54
2019-02-25T07:30:57.511Z,6.53
2019-02-25T07:33:33.214Z,7.15
2019-02-25T07:36:06.189Z,7.39
2019-02-25T07:38:39.349Z,7.63
2019-02-25T07:41:07.738Z,7.54
2019-02-25T07:43:54.160Z,7.54
2019-02-25T07:46:40.283Z,7.57
2019-02-25T07:49:22.356Z,7.37
2019-02-25T07:51:51.641Z,7.54
2019-02-25T07:54:33.595Z,7.71
2019-02-25T07:57:03.510Z,8.24
2019-02-25T07:59:33.441Z,8.43
2019-02-25T08:02:03.340Z,8.76
2019-02-25T08:04:42.098Z,8.77
2019-02-25T08:07:30.285Z,9.04
2019-02-25T08:10:00.312Z,9.32
2019-02-25T08:12:30.173Z,9.12
2019-02-25T08:15:00.159Z,9.20
2019-02-25T08:17:46.324Z,9.38
2019-02-25T08:20:16.235Z,8.96
2019-02-25T08:23:01.221Z,9.20
2019-02-25T08:25:31.202Z,9.08
2019-02-25T08:28:17.577Z,9.30
2019-02-25T08:30:47.496Z,9.73
2019-02-25T08:33:33.618Z,9.42
2019-02-25T08:36:21.702Z,9.06
2019-02-25T08:39:03.592Z,9.36
2019-02-25T08:41:33.541Z,9.66
2019-02-25T08:44:03.444Z,8.96
2019-02-25T08:46:33.361Z,8.76
2019-02-25T08:49:03.255Z,8.80
2019-02-25T08:51:31.551Z,9.07
2019-02-25T08:54:00.387Z,9.62
2019-02-25T08:56:28.667Z,9.72
2019-02-25T08:58:56.935Z,10.21
2019-02-25T09:01:25.230Z,9.84
2019-02-25T09:03:53.486Z,9.31
2019-02-25T09:06:21.778Z,9.10
2019-02-25T09:08:50.036Z,9.31
2019-02-25T09:11:18.329Z,9.62
2019-02-25T09:13:46.635Z,9.41
2019-02-25T09:16:14.932Z,9.65
2019-02-25T09:18:43.198Z,9.37
2019-02-25T09:21:11.469Z,9.20
2019-02-25T09:23:39.760Z,8.90
2019-02-25T09:26:08.027Z,8.95
2019-02-25T09:28:36.301Z,9.33
2019-02-25T09:31:05.707Z,9.38
2019-02-25T09:33:34.126Z,9.69
2019-02-25T09:36:02.386Z,9.65
2019-02-25T09:38:30.671Z,9.77
2019-02-25T09:40:58.928Z,9.57
2019-02-25T09:43:27.227Z,9.37
2019-02-25T09:45:55.499Z,9.77
2019-02-25T09:48:23.759Z,9.77
2019-02-25T09:50:52.054Z,9.93
2019-02-25T09:53:20.320Z,9.90
2019-02-25T09:55:48.603Z,10.63
2019-02-25T09:58:16.907Z,11.02
2019-02-25T10:00:46.185Z,10.72
2019-02-25T10:03:14.653Z,10.50
2019-02-25T10:05:42.950Z,10.71
2019-02-25T10:08:11.249Z,10.38
2019-02-25T10:10:39.582Z,10.44
2019-02-25T10:13:07.992Z,11.01
2019-02-25T10:15:36.253Z,10.53
2019-02-25T10:18:04.517Z,10.54
2019-02-25T10:20:32.796Z,10.62
2019-02-25T10:23:01.095Z,10.96
2019-02-25T10:25:29.355Z,11.62
2019-02-25T10:27:57.646Z,11.34
2019-02-25T10:30:25.918Z,11.02
2019-02-25T10:32:54.195Z,10.95
2019-02-25T10:35:27.762Z,11.24
2019-02-25T10:37:56.030Z,11.63
2019-02-25T10:40:27.407Z,11.98
2019-02-25T10:42:55.133Z,12.11
2019-02-25T10:45:23.852Z,12.05
2019-02-25T10:47:56.583Z,11.96
2019-02-25T10:50:22.138Z,11.95
2019-02-25T10:52:50.430Z,12.00
2019-02-25T10:55:30.917Z,12.02
2019-02-25T10:58:01.351Z,11.93
2019-02-25T11:00:29.381Z,11.42
2019-02-25T11:02:58.211Z,11.77
2019-02-25T11:05:28.443Z,11.28
2019-02-25T11:07:56.770Z,11.52
2019-02-25T11:10:32.383Z,11.39
2019-02-25T11:13:02.115Z,11.86
2019-02-25T11:15:32.427Z,12.28
2019-02-25T11:18:00.693Z,11.94
2019-02-25T11:20:29.707Z,12.19
2019-02-25T11:22:59.017Z,11.82
2019-02-25T11:25:28.486Z,11.79
2019-02-25T11:27:57.315Z,12.09
2019-02-25T11:30:25.608Z,12.42
2019-02-25T11:32:56.178Z,12.44
2019-02-25T11:35:25.068Z,12.87
2019-02-25T11:37:54.712Z,12.96
2019-02-25T11:40:23.367Z,13.01
2019-02-25T11:42:51.630Z,13.02
2019-02-25T11:45:20.773Z,12.89
2019-02-25T11:47:49.090Z,12.47
2019-02-25T11:50:20.852Z,12.89
2019-02-25T11:52:49.125Z,12.78
2019-02-25T11:55:17.426Z,12.53
2019-02-25T11:57:45.733Z,12.32
2019-02-25T12:00:19.076Z,12.19
2019-02-25T12:02:47.356Z,12.21
2019-02-25T12:05:17.090Z,12.26
2019-02-25T12:07:45.338Z,12.26
2019-02-25T12:10:15.126Z,12.32
2019-02-25T12:12:43.403Z,12.05
2019-02-25T12:15:16.201Z,12.08
2019-02-25T12:17:44.476Z,12.25
2019-02-25T12:20:13.885Z,11.48
2019-02-25T12:22:42.230Z,11.80
2019-02-25T12:25:15.661Z,12.15
2019-02-25T12:27:44.054Z,11.47
2019-02-25T12:30:23.093Z,11.13
2019-02-25T12:32:51.388Z,11.21
2019-02-25T12:35:19.653Z,11.54
2019-02-25T12:37:47.929Z,11.85
2019-02-25T12:40:16.843Z,11.80
2019-02-25T12:42:45.115Z,12.05
2019-02-25T12:45:15.304Z,11.65
2019-02-25T12:47:43.598Z,11.24
2019-02-25T12:50:19.150Z,11.08
2019-02-25T12:52:47.436Z,10.91
2019-02-25T12:55:17.829Z,10.96
2019-02-25T12:57:46.098Z,11.51
2019-02-25T13:00:23.738Z,11.59
2019-02-25T13:02:52.006Z,11.53
2019-02-25T13:05:21.811Z,11.47
2019-02-25T13:07:50.106Z,12.03
2019-02-25T13:10:18.737Z,11.89
2019-02-25T13:12:47.029Z,12.33
2019-02-25T13:15:20.033Z,12.26
2019-02-25T13:17:48.318Z,12.49
2019-02-25T13:20:16.576Z,12.56
2019-02-25T13:22:44.863Z,12.54
2019-02-25T13:25:19.032Z,12.40
2019-02-25T13:27:47.319Z,12.51
2019-02-25T13:30:16.718Z,11.71
2019-02-25T13:32:45.019Z,12.23
2019-02-25T13:35:14.323Z,12.00
2019-02-25T13:37:42.586Z,11.59
2019-02-25T13:40:12.598Z,11.70
2019-02-25T13:42:40.894Z,12.11
2019-02-25T13:45:12.341Z,11.91
2019-02-25T13:47:40.596Z,12.29
2019-02-25T13:50:11.631Z,11.98
2019-02-25T13:52:47.790Z,12.16
2019-02-25T13:55:12.320Z,11.94
